Time;durP1;ratioP1;P1;durP2;ratioP2;P2;SDS_P1;SDS_P2;PMS_P1;PMS_P2;Temp;Humidity;BMP_temperature;BMP_pressure;BME280_temperature;BME280_humidity;BME280_pressure;Samples;Min_cycle;Max_cycle;Signal;HPM_P1;HPM_P2
2020/12/08 00:02:14;;;;;;;;;43.25;41.50;;;;;;;;4908889;28;11655;-79
2020/12/08 00:04:41;;;;;;;;;48.00;42.75;;;;;;;;4915082;28;12397;-79
2020/12/08 00:07:09;;;;;;;;;42.50;39.25;;;;;;;;4939352;28;11639;-79
2020/12/08 00:09:35;;;;;;;;;54.00;44.00;;;;;;;;4947048;28;12074;-79
2020/12/08 00:12:03;;;;;;;;;53.25;42.25;;;;;;;;4940889;28;11660;-80
2020/12/08 00:14:30;;;;;;;;;49.50;42.50;;;;;;;;4900299;29;12443;-81
2020/12/08 00:16:57;;;;;;;;;50.25;45.25;;;;;;;;4925973;28;11662;-80
2020/12/08 00:19:25;;;;;;;;;39.25;33.50;;;;;;;;4945770;28;13112;-83
2020/12/08 00:21:51;;;;;;;;;34.75;34.75;;;;;;;;4944761;28;11657;-80
2020/12/08 00:24:18;;;;;;;;;44.75;40.25;;;;;;;;4941775;28;11639;-80
2020/12/08 00:26:45;;;;;;;;;40.50;36.25;;;;;;;;4945993;28;11606;-80
2020/12/08 00:29:12;;;;;;;;;49.50;40.25;;;;;;;;4938640;28;12377;-79
2020/12/08 00:31:39;;;;;;;;;45.00;37.50;;;;;;;;4955569;28;11581;-79
2020/12/08 00:34:07;;;;;;;;;55.50;44.75;;;;;;;;4930672;28;11639;-80
2020/12/08 00:36:34;;;;;;;;;45.00;40.25;;;;;;;;4957702;28;11725;-80
2020/12/08 00:39:01;;;;;;;;;39.75;33.75;;;;;;;;4945453;28;11660;-78
2020/12/08 00:41:28;;;;;;;;;53.50;40.00;;;;;;;;4931867;28;11639;-79
2020/12/08 00:43:55;;;;;;;;;46.25;38.75;;;;;;;;4959614;28;11707;-80
2020/12/08 00:46:22;;;;;;;;;59.00;45.50;;;;;;;;4924007;28;11676;-79
2020/12/08 00:48:48;;;;;;;;;47.75;44.25;;;;;;;;4918183;28;11597;-80
2020/12/08 00:51:17;;;;;;;;;42.75;37.25;;;;;;;;4937146;28;12429;-78
2020/12/08 00:53:44;;;;;;;;;40.50;32.00;;;;;;;;4927591;28;11727;-79
2020/12/08 00:56:12;;;;;;;;;48.00;41.00;;;;;;;;4926804;28;11636;-80
2020/12/08 00:58:39;;;;;;;;;46.75;42.50;;;;;;;;4942303;28;11628;-80
2020/12/08 01:01:08;;;;;;;;;37.25;33.25;;;;;;;;4923799;28;11591;-80
2020/12/08 01:03:35;;;;;;;;;42.50;39.25;;;;;;;;4931012;28;11665;-80
2020/12/08 01:06:02;;;;;;;;;38.50;32.50;;;;;;;;4936590;28;11688;-80
2020/12/08 01:08:30;;;;;;;;;38.50;38.50;;;;;;;;4941890;28;11651;-81
2020/12/08 01:10:58;;;;;;;;;52.25;44.25;;;;;;;;4928805;28;11727;-79
2020/12/08 01:13:25;;;;;;;;;44.25;36.25;;;;;;;;4953882;28;12429;-77
2020/12/08 01:15:52;;;;;;;;;39.50;36.75;;;;;;;;4918895;28;11659;-81
2020/12/08 01:18:19;;;;;;;;;43.50;42.25;;;;;;;;4901424;28;11651;-81
2020/12/08 01:20:46;;;;;;;;;41.00;36.75;;;;;;;;4950436;28;11667;-80
2020/12/08 01:23:13;;;;;;;;;63.25;44.50;;;;;;;;4933451;28;11666;-80
2020/12/08 01:25:41;;;;;;;;;39.00;34.25;;;;;;;;4931344;28;11681;-82
2020/12/08 01:28:08;;;;;;;;;48.75;42.75;;;;;;;;4929403;28;11631;-81
2020/12/08 01:30:34;;;;;;;;;43.50;38.25;;;;;;;;4958031;28;11626;-80
2020/12/08 01:33:02;;;;;;;;;50.75;39.00;;;;;;;;4945842;28;11646;-80
2020/12/08 01:35:28;;;;;;;;;43.00;38.25;;;;;;;;4946309;28;11688;-78
2020/12/08 01:37:55;;;;;;;;;51.50;42.00;;;;;;;;4915976;28;11673;-76
2020/12/08 01:40:22;;;;;;;;;46.00;40.00;;;;;;;;4916011;28;11645;-78
2020/12/08 01:42:51;;;;;;;;;49.75;43.75;;;;;;;;4921960;28;11669;-78
2020/12/08 01:45:18;;;;;;;;;34.00;34.00;;;;;;;;4960114;28;11621;-79
2020/12/08 01:47:45;;;;;;;;;43.75;37.25;;;;;;;;4944120;28;11630;-79
2020/12/08 01:50:11;;;;;;;;;30.25;24.50;;;;;;;;4940537;28;11636;-78
2020/12/08 01:52:38;;;;;;;;;40.00;28.50;;;;;;;;4917727;28;12301;-79
2020/12/08 01:55:05;;;;;;;;;44.25;38.25;;;;;;;;4956649;28;11819;-79
2020/12/08 01:57:33;;;;;;;;;39.75;32.75;;;;;;;;4936568;28;11722;-78
2020/12/08 02:00:01;;;;;;;;;28.25;27.25;;;;;;;;4933212;28;11667;-79
2020/12/08 02:02:28;;;;;;;;;35.50;32.50;;;;;;;;4898828;28;11571;-79
2020/12/08 02:04:55;;;;;;;;;28.75;25.25;;;;;;;;4920311;28;11673;-78
2020/12/08 02:07:22;;;;;;;;;37.50;32.00;;;;;;;;4928771;28;11657;-78
2020/12/08 02:09:49;;;;;;;;;34.50;29.50;;;;;;;;4933806;28;11652;-78
2020/12/08 02:12:16;;;;;;;;;28.50;27.00;;;;;;;;4951136;28;11690;-78
2020/12/08 02:14:43;;;;;;;;;27.25;24.50;;;;;;;;4911294;28;11651;-79
2020/12/08 02:17:13;;;;;;;;;32.75;23.75;;;;;;;;4919955;28;11707;-78
2020/12/08 02:19:41;;;;;;;;;27.00;26.00;;;;;;;;4901614;28;11600;-78
2020/12/08 02:22:08;;;;;;;;;30.00;23.75;;;;;;;;4930710;28;11631;-78
2020/12/08 02:24:35;;;;;;;;;26.25;23.50;;;;;;;;4949695;28;13531;-81
2020/12/08 02:27:02;;;;;;;;;34.00;30.50;;;;;;;;4929603;28;11618;-80
2020/12/08 02:29:29;;;;;;;;;36.00;31.00;;;;;;;;4933162;28;11710;-79
2020/12/08 02:31:56;;;;;;;;;33.25;24.25;;;;;;;;4926756;28;11742;-81
2020/12/08 02:34:23;;;;;;;;;32.75;31.50;;;;;;;;4909052;28;11656;-79
2020/12/08 02:36:55;;;;;;;;;26.50;22.00;;;;;;;;4936505;28;11644;-80
2020/12/08 02:39:23;;;;;;;;;37.25;33.50;;;;;;;;4930011;28;11644;-79
2020/12/08 02:41:49;;;;;;;;;34.75;27.25;;;;;;;;4922926;28;11677;-80
2020/12/08 02:44:16;;;;;;;;;36.75;31.00;;;;;;;;4932955;28;11654;-79
2020/12/08 02:46:43;;;;;;;;;24.75;24.75;;;;;;;;4925395;28;11636;-80
2020/12/08 02:49:10;;;;;;;;;32.75;28.25;;;;;;;;4940988;28;11620;-77
2020/12/08 02:51:37;;;;;;;;;27.25;27.25;;;;;;;;4929014;28;11611;-77
2020/12/08 02:54:04;;;;;;;;;33.25;26.50;;;;;;;;4930307;28;11678;-78
2020/12/08 02:56:32;;;;;;;;;41.00;33.50;;;;;;;;4909625;28;11709;-77
2020/12/08 02:58:59;;;;;;;;;28.25;28.25;;;;;;;;4929514;28;11648;-78
2020/12/08 03:01:26;;;;;;;;;27.75;27.25;;;;;;;;4903162;28;12393;-77
2020/12/08 03:03:53;;;;;;;;;24.00;21.00;;;;;;;;4939697;28;11645;-78
2020/12/08 03:06:19;;;;;;;;;27.75;25.00;;;;;;;;4946895;28;12415;-78
2020/12/08 03:08:47;;;;;;;;;22.25;22.25;;;;;;;;4942819;28;11666;-78
2020/12/08 03:11:14;;;;;;;;;29.50;26.25;;;;;;;;4917412;28;11679;-79
2020/12/08 03:13:42;;;;;;;;;30.75;27.00;;;;;;;;4937447;28;11675;-78
2020/12/08 03:16:10;;;;;;;;;27.00;26.75;;;;;;;;4908595;28;12530;-78
2020/12/08 03:18:41;;;;;;;;;49.75;42.25;;;;;;;;4929303;28;11633;-78
2020/12/08 03:21:07;;;;;;;;;38.50;32.25;;;;;;;;4930061;28;11698;-78
2020/12/08 03:23:34;;;;;;;;;40.75;37.50;;;;;;;;4909831;28;11654;-78
2020/12/08 03:26:01;;;;;;;;;33.00;30.00;;;;;;;;4938832;28;11672;-76
2020/12/08 03:28:28;;;;;;;;;20.75;20.50;;;;;;;;4928291;28;11774;-78
2020/12/08 03:30:56;;;;;;;;;23.50;19.50;;;;;;;;4936971;28;11601;-78
2020/12/08 03:33:23;;;;;;;;;28.50;23.25;;;;;;;;4924258;28;11636;-78
2020/12/08 03:35:50;;;;;;;;;24.25;23.75;;;;;;;;4938123;28;11666;-78
2020/12/08 03:38:17;;;;;;;;;24.25;24.25;;;;;;;;4942111;28;11655;-79
2020/12/08 03:40:45;;;;;;;;;23.50;23.50;;;;;;;;4942282;28;11615;-76
2020/12/08 03:43:12;;;;;;;;;24.50;18.75;;;;;;;;4955191;28;11626;-79
2020/12/08 03:45:39;;;;;;;;;26.25;26.25;;;;;;;;4933855;28;11679;-80
2020/12/08 03:48:06;;;;;;;;;23.50;23.50;;;;;;;;4903826;28;12129;-78
2020/12/08 03:50:33;;;;;;;;;29.25;25.75;;;;;;;;4916468;28;12384;-79
2020/12/08 03:53:00;;;;;;;;;21.50;19.75;;;;;;;;4931350;28;11673;-78
2020/12/08 03:55:27;;;;;;;;;19.75;17.25;;;;;;;;4930831;28;12493;-78
2020/12/08 03:57:54;;;;;;;;;20.25;20.25;;;;;;;;4942131;28;11615;-78
2020/12/08 04:00:21;;;;;;;;;31.50;30.25;;;;;;;;4929839;28;11618;-78
2020/12/08 04:02:48;;;;;;;;;30.50;25.50;;;;;;;;4931732;28;11631;-79
2020/12/08 04:05:15;;;;;;;;;26.75;24.50;;;;;;;;4929626;28;12475;-80
2020/12/08 04:07:42;;;;;;;;;26.75;24.25;;;;;;;;4950037;28;11607;-78
2020/12/08 04:10:09;;;;;;;;;35.00;31.00;;;;;;;;4914668;28;11674;-79
2020/12/08 04:12:36;;;;;;;;;38.00;31.50;;;;;;;;4926799;28;12516;-78
2020/12/08 04:15:03;;;;;;;;;43.50;39.75;;;;;;;;4922437;28;11681;-79
2020/12/08 04:17:30;;;;;;;;;38.00;32.75;;;;;;;;4950422;28;11599;-78
2020/12/08 04:19:57;;;;;;;;;33.25;27.50;;;;;;;;4934078;28;11648;-78
2020/12/08 04:22:25;;;;;;;;;30.75;29.25;;;;;;;;4939558;28;11640;-79
2020/12/08 04:24:52;;;;;;;;;22.00;17.00;;;;;;;;4903273;28;11782;-78
2020/12/08 04:27:18;;;;;;;;;39.50;32.50;;;;;;;;4897601;29;11647;-79
2020/12/08 04:29:45;;;;;;;;;25.50;23.50;;;;;;;;4899882;29;11632;-79
2020/12/08 04:32:12;;;;;;;;;21.00;21.00;;;;;;;;4928171;28;11607;-78
2020/12/08 04:34:39;;;;;;;;;24.75;22.75;;;;;;;;4927056;28;11654;-79
2020/12/08 04:37:06;;;;;;;;;24.50;21.25;;;;;;;;4950220;28;11755;-79
2020/12/08 04:39:34;;;;;;;;;31.50;26.25;;;;;;;;4928505;28;11612;-79
2020/12/08 04:42:01;;;;;;;;;30.75;25.00;;;;;;;;4936678;28;12444;-78
2020/12/08 04:44:28;;;;;;;;;16.25;16.25;;;;;;;;4940434;28;11595;-79
2020/12/08 04:46:56;;;;;;;;;24.25;19.25;;;;;;;;4910250;28;11682;-79
2020/12/08 04:49:24;;;;;;;;;21.00;21.00;;;;;;;;4925795;28;11649;-79
2020/12/08 04:51:51;;;;;;;;;18.50;17.75;;;;;;;;4916938;28;11723;-78
2020/12/08 04:54:18;;;;;;;;;27.25;21.25;;;;;;;;4920584;28;11660;-78
2020/12/08 04:56:48;;;;;;;;;20.50;17.50;;;;;;;;4945459;28;11642;-78
2020/12/08 04:59:22;;;;;;;;;21.50;16.50;;;;;;;;4927745;28;11646;-77
2020/12/08 05:01:49;;;;;;;;;15.00;14.50;;;;;;;;4927795;28;11719;-78
2020/12/08 05:04:24;;;;;;;;;24.00;24.00;;;;;;;;4928344;28;11651;-79
2020/12/08 05:07:02;;;;;;;;;16.25;14.75;;;;;;;;4944729;28;12523;-78
2020/12/08 05:09:29;;;;;;;;;23.00;15.75;;;;;;;;4926140;28;11648;-80
2020/12/08 05:11:58;;;;;;;;;20.75;18.75;;;;;;;;4932781;28;11615;-77
2020/12/08 05:14:25;;;;;;;;;19.25;19.25;;;;;;;;4912101;28;11623;-78
2020/12/08 05:17:03;;;;;;;;;23.00;20.75;;;;;;;;4944243;28;11592;-79
2020/12/08 05:19:30;;;;;;;;;27.00;27.00;;;;;;;;4935865;28;11661;-80
2020/12/08 05:21:58;;;;;;;;;31.25;23.25;;;;;;;;4926447;28;11612;-81
2020/12/08 05:24:26;;;;;;;;;7.00;4.25;;;;;;;;4947267;28;11670;-80
2020/12/08 05:26:55;;;;;;;;;27.25;25.00;;;;;;;;4930938;28;11553;-81
2020/12/08 05:29:23;;;;;;;;;22.25;18.25;;;;;;;;4917304;28;11662;-80
2020/12/08 05:31:50;;;;;;;;;21.75;21.75;;;;;;;;4927797;28;11592;-81
2020/12/08 05:34:19;;;;;;;;;19.50;19.50;;;;;;;;4927123;28;11656;-78
2020/12/08 05:36:49;;;;;;;;;7.50;5.00;;;;;;;;4924973;28;11692;-78
2020/12/08 05:39:18;;;;;;;;;30.25;27.25;;;;;;;;4920349;28;11694;-80
2020/12/08 05:41:46;;;;;;;;;14.25;14.25;;;;;;;;4954869;28;11653;-81
2020/12/08 05:44:17;;;;;;;;;35.67;33.33;;;;;;;;4950417;28;11598;-80
2020/12/08 05:46:47;;;;;;;;;39.67;37.00;;;;;;;;4954954;28;11726;-80
2020/12/08 05:49:15;;;;;;;;;28.33;23.33;;;;;;;;4935655;28;8873;-79
2020/12/08 05:51:43;;;;;;;;;31.33;29.67;;;;;;;;4929958;28;8883;-80
2020/12/08 05:54:15;;;;;;;;;30.67;26.00;;;;;;;;4951463;28;8893;-80
2020/12/08 05:56:42;;;;;;;;;29.33;25.67;;;;;;;;4951879;28;8867;-79
2020/12/08 05:59:09;;;;;;;;;26.67;24.33;;;;;;;;4950212;28;11769;-80
2020/12/08 06:01:48;;;;;;;;;39.33;36.33;;;;;;;;4937874;28;8823;-81
2020/12/08 06:04:15;;;;;;;;;34.67;31.00;;;;;;;;4943214;28;8870;-79
2020/12/08 06:06:49;;;;;;;;;25.00;22.00;;;;;;;;4946859;28;11633;-77
2020/12/08 06:09:30;;;;;;;;;27.67;24.33;;;;;;;;4928272;28;11619;-78
2020/12/08 06:11:57;;;;;;;;;21.25;17.75;;;;;;;;4928523;28;11776;-80
2020/12/08 06:14:35;;;;;;;;;18.25;15.50;;;;;;;;4948787;28;11613;-81
2020/12/08 06:17:04;;;;;;;;;24.50;19.50;;;;;;;;4913241;28;11752;-81
2020/12/08 06:19:32;;;;;;;;;24.33;22.67;;;;;;;;4933014;28;11668;-79
2020/12/08 06:21:59;;;;;;;;;24.75;20.75;;;;;;;;4929058;28;11620;-79
2020/12/08 06:24:26;;;;;;;;;25.67;25.67;;;;;;;;4928909;28;11671;-77
2020/12/08 06:26:53;;;;;;;;;29.33;27.00;;;;;;;;4919546;28;11655;-77
2020/12/08 06:29:20;;;;;;;;;33.00;31.00;;;;;;;;4917748;28;11655;-76
2020/12/08 06:31:48;;;;;;;;;28.00;26.33;;;;;;;;4924132;28;11620;-76
2020/12/08 06:34:25;;;;;;;;;21.67;19.00;;;;;;;;4940954;28;8907;-77
2020/12/08 06:36:52;;;;;;;;;34.67;33.67;;;;;;;;4920516;28;9012;-79
2020/12/08 06:39:21;;;;;;;;;86.00;67.00;;;;;;;;4911226;28;12459;-78
2020/12/08 06:41:48;;;;;;;;;47.67;41.67;;;;;;;;4901932;28;8901;-78
2020/12/08 06:44:17;;;;;;;;;42.33;35.00;;;;;;;;4902706;28;8895;-81
2020/12/08 06:46:55;;;;;;;;;61.00;52.33;;;;;;;;4894003;28;8930;-79
2020/12/08 06:49:22;;;;;;;;;38.00;36.67;;;;;;;;4908603;28;8914;-80
2020/12/08 06:51:55;;;;;;;;;29.00;26.00;;;;;;;;4900726;28;8892;-80
2020/12/08 06:54:23;;;;;;;;;31.33;25.33;;;;;;;;4899712;28;8900;-78
2020/12/08 06:56:50;;;;;;;;;35.00;31.33;;;;;;;;4901550;28;11782;-78
2020/12/08 06:59:23;;;;;;;;;29.00;27.33;;;;;;;;4898412;29;8878;-77
2020/12/08 07:01:51;;;;;;;;;29.33;29.00;;;;;;;;4894952;28;13140;-76
2020/12/08 07:04:18;;;;;;;;;38.67;34.00;;;;;;;;4893789;29;9720;-77
2020/12/08 07:06:46;;;;;;;;;35.33;27.00;;;;;;;;4903329;29;8845;-78
2020/12/08 07:09:13;;;;;;;;;39.33;37.00;;;;;;;;4903806;29;11644;-79
2020/12/08 07:11:40;;;;;;;;;28.33;27.00;;;;;;;;4911613;28;8885;-81
2020/12/08 07:14:07;;;;;;;;;34.00;32.00;;;;;;;;4939417;28;8872;-81
2020/12/08 07:16:35;;;;;;;;;37.33;33.33;;;;;;;;4925490;28;8884;-81
2020/12/08 07:19:03;;;;;;;;;48.33;36.67;;;;;;;;4922570;28;8952;-80
2020/12/08 07:21:30;;;;;;;;;32.00;29.67;;;;;;;;4945509;28;8901;-81
2020/12/08 07:23:58;;;;;;;;;39.33;35.00;;;;;;;;4944622;28;8865;-79
2020/12/08 07:26:26;;;;;;;;;43.67;41.00;;;;;;;;4939057;28;10399;-82
2020/12/08 07:28:53;;;;;;;;;73.00;57.67;;;;;;;;4930140;28;8874;-79
2020/12/08 07:31:22;;;;;;;;;60.00;49.33;;;;;;;;4927185;28;9348;-79
2020/12/08 07:33:49;;;;;;;;;60.67;49.67;;;;;;;;4913159;28;8916;-78
2020/12/08 07:36:23;;;;;;;;;43.33;41.00;;;;;;;;4908402;29;8877;-80
2020/12/08 07:38:52;;;;;;;;;56.33;46.33;;;;;;;;4902410;29;9656;-79
2020/12/08 07:41:20;;;;;;;;;65.33;50.33;;;;;;;;4904619;29;8848;-79
2020/12/08 07:43:48;;;;;;;;;39.33;34.00;;;;;;;;4904152;28;8876;-79
2020/12/08 07:46:22;;;;;;;;;40.00;35.33;;;;;;;;4903941;28;9583;-80
2020/12/08 07:49:00;;;;;;;;;44.67;39.00;;;;;;;;4900548;29;8892;-79
2020/12/08 07:51:28;;;;;;;;;40.33;38.67;;;;;;;;4904396;29;11728;-79
2020/12/08 07:53:55;;;;;;;;;43.00;34.67;;;;;;;;4904951;29;8888;-79
2020/12/08 07:56:26;;;;;;;;;35.67;35.00;;;;;;;;4897599;29;8919;-80
2020/12/08 07:58:53;;;;;;;;;43.33;41.00;;;;;;;;4916272;28;11618;-80
2020/12/08 08:01:20;;;;;;;;;45.33;40.00;;;;;;;;4910295;28;8878;-79
2020/12/08 08:03:47;;;;;;;;;63.00;51.33;;;;;;;;4909651;29;8887;-79
2020/12/08 08:06:15;;;;;;;;;39.33;39.33;;;;;;;;4907510;29;8925;-80
2020/12/08 08:08:42;;;;;;;;;44.00;33.33;;;;;;;;4906587;29;8903;-79
2020/12/08 08:11:09;;;;;;;;;47.00;37.00;;;;;;;;4904583;29;8884;-79
2020/12/08 08:13:37;;;;;;;;;36.33;36.33;;;;;;;;4927688;28;9322;-79
2020/12/08 08:16:03;;;;;;;;;34.33;31.67;;;;;;;;4926789;28;8881;-71
2020/12/08 08:18:31;;;;;;;;;34.33;33.67;;;;;;;;4955026;28;11735;-71
2020/12/08 08:20:59;;;;;;;;;38.00;35.33;;;;;;;;4927272;28;8954;-70
2020/12/08 08:23:25;;;;;;;;;33.67;29.67;;;;;;;;4945003;28;8956;-71
2020/12/08 08:25:52;;;;;;;;;27.00;24.67;;;;;;;;4940468;28;11618;-71
2020/12/08 08:28:20;;;;;;;;;41.33;39.33;;;;;;;;4928664;28;11619;-71
2020/12/08 08:30:47;;;;;;;;;35.33;28.00;;;;;;;;4952083;28;8810;-71
2020/12/08 08:33:14;;;;;;;;;32.33;29.67;;;;;;;;4928651;28;11630;-72
2020/12/08 08:35:40;;;;;;;;;30.33;28.33;;;;;;;;4914828;28;11690;-72
2020/12/08 08:38:07;;;;;;;;;38.00;27.67;;;;;;;;4932211;28;8855;-72
2020/12/08 08:40:34;;;;;;;;;29.00;25.00;;;;;;;;4905398;28;11688;-72
2020/12/08 08:43:01;;;;;;;;;31.33;29.33;;;;;;;;4931982;28;12448;-71
2020/12/08 08:45:28;;;;;;;;;29.33;29.33;;;;;;;;4933778;28;11660;-72
2020/12/08 08:47:56;;;;;;;;;33.67;30.00;;;;;;;;4933993;28;12475;-71
2020/12/08 08:50:23;;;;;;;;;25.33;25.33;;;;;;;;4953075;28;9620;-70
2020/12/08 08:52:50;;;;;;;;;40.67;37.33;;;;;;;;4908997;28;11658;-72
2020/12/08 08:55:17;;;;;;;;;25.00;21.33;;;;;;;;4906714;29;11679;-71
2020/12/08 08:57:44;;;;;;;;;38.67;37.00;;;;;;;;4903689;29;11650;-71
2020/12/08 09:00:12;;;;;;;;;52.00;46.00;;;;;;;;4932460;28;8885;-72
2020/12/08 09:02:39;;;;;;;;;48.33;41.33;;;;;;;;4963452;28;8881;-73
2020/12/08 09:05:07;;;;;;;;;50.00;42.33;;;;;;;;4936253;28;11684;-73
2020/12/08 09:07:34;;;;;;;;;51.00;44.33;;;;;;;;4936790;28;8884;-72
2020/12/08 09:10:02;;;;;;;;;28.33;26.33;;;;;;;;4947285;28;8865;-72
2020/12/08 09:12:29;;;;;;;;;36.25;33.25;;;;;;;;4951663;28;11702;-72
2020/12/08 09:14:58;;;;;;;;;43.33;37.67;;;;;;;;4948336;28;11658;-73
2020/12/08 09:17:25;;;;;;;;;42.67;38.67;;;;;;;;4935186;28;11777;-72
2020/12/08 09:19:52;;;;;;;;;49.67;40.00;;;;;;;;4928253;28;11681;-73
2020/12/08 09:22:20;;;;;;;;;50.00;41.67;;;;;;;;4909872;28;11672;-72
2020/12/08 09:24:47;;;;;;;;;46.33;43.67;;;;;;;;4930170;28;8866;-73
2020/12/08 09:27:14;;;;;;;;;46.33;42.00;;;;;;;;4931086;28;11677;-72
2020/12/08 09:29:42;;;;;;;;;35.33;29.00;;;;;;;;4945979;28;11612;-72
2020/12/08 09:32:09;;;;;;;;;60.00;49.67;;;;;;;;4918934;28;11749;-72
2020/12/08 09:34:36;;;;;;;;;41.00;38.67;;;;;;;;4915959;28;8873;-72
2020/12/08 09:37:03;;;;;;;;;42.00;40.00;;;;;;;;4916105;28;11672;-72
2020/12/08 09:39:31;;;;;;;;;35.25;30.75;;;;;;;;4950726;28;11736;-73
2020/12/08 09:41:58;;;;;;;;;51.75;43.25;;;;;;;;4934723;28;11681;-71
2020/12/08 09:44:25;;;;;;;;;45.67;42.67;;;;;;;;4946767;28;11657;-72
2020/12/08 09:46:52;;;;;;;;;50.33;43.00;;;;;;;;4897634;28;12467;-71
2020/12/08 09:49:19;;;;;;;;;40.75;34.25;;;;;;;;4930621;28;11654;-71
2020/12/08 09:51:46;;;;;;;;;36.25;34.00;;;;;;;;4930967;28;11699;-71
2020/12/08 09:54:13;;;;;;;;;33.00;32.25;;;;;;;;4910435;28;11636;-72
2020/12/08 09:56:46;;;;;;;;;33.75;30.50;;;;;;;;4933596;28;11635;-71
2020/12/08 09:59:13;;;;;;;;;41.50;38.50;;;;;;;;4932021;28;11624;-72
2020/12/08 10:01:41;;;;;;;;;35.50;34.50;;;;;;;;4939857;28;11607;-71
2020/12/08 10:04:08;;;;;;;;;36.00;35.25;;;;;;;;4927210;28;11625;-71
2020/12/08 10:06:34;;;;;;;;;41.75;37.75;;;;;;;;4902428;28;11687;-71
2020/12/08 10:09:02;;;;;;;;;67.33;55.67;;;;;;;;4940448;28;11657;-71
2020/12/08 10:11:28;;;;;;;;;46.25;39.00;;;;;;;;4906116;28;8935;-72
2020/12/08 10:13:59;;;;;;;;;47.00;39.25;;;;;;;;4928466;28;11637;-72
2020/12/08 10:16:27;;;;;;;;;46.50;43.25;;;;;;;;4939836;28;11651;-72
2020/12/08 10:18:54;;;;;;;;;44.50;41.75;;;;;;;;4922906;28;11664;-71
2020/12/08 10:21:22;;;;;;;;;46.75;40.00;;;;;;;;4917752;28;11735;-72
2020/12/08 10:23:49;;;;;;;;;42.00;39.75;;;;;;;;4920631;28;11700;-72
2020/12/08 10:26:16;;;;;;;;;59.00;47.50;;;;;;;;4961072;28;11633;-72
2020/12/08 10:28:43;;;;;;;;;22.75;21.00;;;;;;;;4955000;28;11734;-72
2020/12/08 10:31:10;;;;;;;;;53.50;40.50;;;;;;;;4945100;28;11551;-72
2020/12/08 10:33:37;;;;;;;;;45.00;40.50;;;;;;;;4954426;28;11662;-72
2020/12/08 10:36:04;;;;;;;;;37.50;35.00;;;;;;;;4946061;28;11610;-72
2020/12/08 10:38:31;;;;;;;;;37.25;29.00;;;;;;;;4927893;28;11643;-72
2020/12/08 10:40:58;;;;;;;;;44.25;41.25;;;;;;;;4898661;29;11634;-72
2020/12/08 10:43:25;;;;;;;;;33.75;33.00;;;;;;;;4907760;29;11658;-72
2020/12/08 10:45:52;;;;;;;;;47.00;41.25;;;;;;;;4908917;29;11717;-73
2020/12/08 10:48:19;;;;;;;;;47.00;40.75;;;;;;;;4898475;29;11658;-72
2020/12/08 10:50:46;;;;;;;;;34.75;32.50;;;;;;;;4894012;29;11750;-72
2020/12/08 10:53:13;;;;;;;;;41.75;38.00;;;;;;;;4920019;28;11666;-71
2020/12/08 10:55:40;;;;;;;;;27.25;27.25;;;;;;;;4907008;28;11662;-73
2020/12/08 10:58:07;;;;;;;;;29.75;29.75;;;;;;;;4934435;28;11650;-72
2020/12/08 11:00:34;;;;;;;;;49.75;40.00;;;;;;;;4921479;28;11622;-73
2020/12/08 11:03:02;;;;;;;;;47.75;40.50;;;;;;;;4946787;28;11678;-71
2020/12/08 11:05:29;;;;;;;;;36.75;36.75;;;;;;;;4930013;28;11661;-72
2020/12/08 11:07:56;;;;;;;;;30.75;28.75;;;;;;;;4932127;28;11672;-72
2020/12/08 11:10:23;;;;;;;;;38.00;32.75;;;;;;;;4946206;28;11672;-72
2020/12/08 11:12:50;;;;;;;;;32.50;29.50;;;;;;;;4937297;28;11675;-72
2020/12/08 11:15:17;;;;;;;;;25.00;24.75;;;;;;;;4924176;28;11668;-72
2020/12/08 11:17:44;;;;;;;;;50.00;41.00;;;;;;;;4914155;28;11661;-71
2020/12/08 11:20:11;;;;;;;;;37.25;36.00;;;;;;;;4917181;28;11662;-71
2020/12/08 11:22:39;;;;;;;;;38.00;34.00;;;;;;;;4905545;28;11615;-71
2020/12/08 11:25:07;;;;;;;;;34.75;34.75;;;;;;;;4931655;28;11669;-72
2020/12/08 11:27:34;;;;;;;;;53.00;43.50;;;;;;;;4913135;28;11748;-71
2020/12/08 11:30:01;;;;;;;;;34.25;33.50;;;;;;;;4909985;28;11630;-72
2020/12/08 11:32:28;;;;;;;;;37.75;32.00;;;;;;;;4922116;28;11625;-72
2020/12/08 11:34:54;;;;;;;;;45.75;41.00;;;;;;;;4923923;28;11649;-72
2020/12/08 11:37:21;;;;;;;;;33.00;31.00;;;;;;;;4923770;28;11695;-71
2020/12/08 11:39:49;;;;;;;;;44.50;35.75;;;;;;;;4937448;28;11616;-71
2020/12/08 11:42:16;;;;;;;;;48.00;41.25;;;;;;;;4929676;28;12707;-71
2020/12/08 11:44:46;;;;;;;;;58.00;44.00;;;;;;;;4940020;28;11674;-71
2020/12/08 11:47:13;;;;;;;;;43.25;38.25;;;;;;;;4940909;28;11667;-72
2020/12/08 11:49:40;;;;;;;;;50.50;43.25;;;;;;;;4945603;28;11746;-72
2020/12/08 11:52:09;;;;;;;;;35.25;32.50;;;;;;;;4919654;28;11642;-71
2020/12/08 11:54:37;;;;;;;;;34.75;34.75;;;;;;;;4950421;28;11722;-72
2020/12/08 11:57:05;;;;;;;;;39.50;33.00;;;;;;;;4931105;28;11791;-71
2020/12/08 11:59:32;;;;;;;;;47.25;39.50;;;;;;;;4930176;28;11762;-71
2020/12/08 12:01:59;;;;;;;;;22.00;12.75;;;;;;;;4921785;28;11594;-72
2020/12/08 12:04:26;;;;;;;;;45.75;40.75;;;;;;;;4936431;28;11639;-70
2020/12/08 12:06:53;;;;;;;;;31.50;29.25;;;;;;;;4930501;28;11700;-71
2020/12/08 12:09:20;;;;;;;;;42.25;40.50;;;;;;;;4943425;28;11809;-72
2020/12/08 12:11:47;;;;;;;;;39.75;39.75;;;;;;;;4957857;28;11712;-71
2020/12/08 12:14:15;;;;;;;;;42.00;38.00;;;;;;;;4933294;28;11756;-71
2020/12/08 12:16:42;;;;;;;;;49.00;43.00;;;;;;;;4952509;28;11666;-71
2020/12/08 12:19:09;;;;;;;;;22.25;22.25;;;;;;;;4951377;28;11657;-71
2020/12/08 12:21:36;;;;;;;;;38.00;29.75;;;;;;;;4937080;28;11680;-71
2020/12/08 12:24:03;;;;;;;;;48.25;40.75;;;;;;;;4950628;28;11639;-72
2020/12/08 12:26:29;;;;;;;;;43.75;37.50;;;;;;;;4918781;28;11659;-72
2020/12/08 12:28:56;;;;;;;;;48.75;43.50;;;;;;;;4928731;28;11700;-71
2020/12/08 12:31:24;;;;;;;;;47.75;41.50;;;;;;;;4905997;28;11646;-70
2020/12/08 12:33:51;;;;;;;;;40.50;36.00;;;;;;;;4929163;28;11632;-71
2020/12/08 12:36:18;;;;;;;;;44.75;37.00;;;;;;;;4924968;28;12372;-71
2020/12/08 12:38:45;;;;;;;;;42.00;38.50;;;;;;;;4950740;28;12466;-71
2020/12/08 12:41:11;;;;;;;;;36.50;33.50;;;;;;;;4939700;28;11657;-71
2020/12/08 12:43:38;;;;;;;;;49.00;37.75;;;;;;;;4912573;28;11689;-71
2020/12/08 12:46:05;;;;;;;;;34.75;31.75;;;;;;;;4932531;28;12274;-71
2020/12/08 12:48:33;;;;;;;;;38.50;35.50;;;;;;;;4940166;28;11670;-71
2020/12/08 12:51:00;;;;;;;;;37.75;32.75;;;;;;;;4929454;28;11651;-72
2020/12/08 12:53:27;;;;;;;;;36.75;32.50;;;;;;;;4945573;28;11635;-71
2020/12/08 12:55:54;;;;;;;;;50.50;45.75;;;;;;;;4938649;28;11641;-71
2020/12/08 12:58:21;;;;;;;;;41.25;37.75;;;;;;;;4963999;28;11606;-71
2020/12/08 13:00:48;;;;;;;;;39.00;34.50;;;;;;;;4907934;28;11608;-71
2020/12/08 13:03:15;;;;;;;;;34.25;29.00;;;;;;;;4936351;28;12291;-71
2020/12/08 13:05:43;;;;;;;;;34.25;32.50;;;;;;;;4905676;29;11741;-72
2020/12/08 13:08:09;;;;;;;;;37.75;35.50;;;;;;;;4897204;29;11673;-71
2020/12/08 13:10:36;;;;;;;;;39.00;30.25;;;;;;;;4908014;28;11686;-71
2020/12/08 13:13:03;;;;;;;;;40.75;30.75;;;;;;;;4914363;28;11730;-71
2020/12/08 13:15:29;;;;;;;;;49.00;39.00;;;;;;;;4922494;28;11666;-71
2020/12/08 13:17:57;;;;;;;;;33.25;31.75;;;;;;;;4945152;28;11652;-72
2020/12/08 13:20:24;;;;;;;;;47.75;43.75;;;;;;;;4931887;28;11672;-71
2020/12/08 13:22:51;;;;;;;;;37.50;33.75;;;;;;;;4923577;28;11617;-71
2020/12/08 13:25:18;;;;;;;;;39.00;34.75;;;;;;;;4922722;28;11647;-70
2020/12/08 13:27:45;;;;;;;;;31.00;29.50;;;;;;;;4948609;28;11649;-71
2020/12/08 13:30:12;;;;;;;;;68.33;57.00;;;;;;;;4921644;28;11702;-70
2020/12/08 13:32:38;;;;;;;;;44.75;37.50;;;;;;;;4927118;28;11630;-71
2020/12/08 13:35:05;;;;;;;;;45.50;38.50;;;;;;;;4933331;28;11620;-70
2020/12/08 13:37:32;;;;;;;;;37.25;36.75;;;;;;;;4940870;28;12432;-70
2020/12/08 13:40:01;;;;;;;;;39.25;37.25;;;;;;;;4912709;28;11683;-71
2020/12/08 13:42:28;;;;;;;;;41.00;37.75;;;;;;;;4939280;28;11657;-70
2020/12/08 13:44:55;;;;;;;;;30.50;27.50;;;;;;;;4934228;28;11661;-70
2020/12/08 13:47:22;;;;;;;;;40.50;31.00;;;;;;;;4924518;28;12443;-70
2020/12/08 13:49:48;;;;;;;;;29.75;27.75;;;;;;;;4938862;28;11653;-70
2020/12/08 13:52:15;;;;;;;;;38.25;34.00;;;;;;;;4930082;28;11669;-70
2020/12/08 13:54:42;;;;;;;;;38.25;33.25;;;;;;;;4947403;28;11627;-70
2020/12/08 13:57:10;;;;;;;;;37.25;32.25;;;;;;;;4934533;28;11638;-71
2020/12/08 13:59:37;;;;;;;;;24.50;24.50;;;;;;;;4933159;28;11658;-70
2020/12/08 14:02:04;;;;;;;;;30.00;28.75;;;;;;;;4931897;28;11691;-70
2020/12/08 14:04:31;;;;;;;;;36.75;32.75;;;;;;;;4942617;28;11665;-70
2020/12/08 14:06:58;;;;;;;;;39.75;34.75;;;;;;;;4938196;28;11713;-70
2020/12/08 14:09:25;;;;;;;;;29.00;25.25;;;;;;;;4932932;28;11691;-70
2020/12/08 14:11:52;;;;;;;;;39.50;32.75;;;;;;;;4915625;28;12377;-70
2020/12/08 14:14:20;;;;;;;;;36.50;35.00;;;;;;;;4951856;28;12484;-70
2020/12/08 14:16:46;;;;;;;;;42.50;33.00;;;;;;;;4944566;28;11666;-70
2020/12/08 14:19:13;;;;;;;;;47.00;38.75;;;;;;;;4957306;28;11725;-70
2020/12/08 14:21:40;;;;;;;;;33.25;29.00;;;;;;;;4935091;28;11656;-70